Portada
METAR-TAF:

METAR-TAF

Aeroports :

Branson, Missouri, Estats Units d'Amèrica

latitud: 36-31-55N, longitud: 093-12-02W, altitud: 397 m

Observació

L'informe es va fer fa 1 hora i 2 minuts, a les 22:51 UTC
Vent 8 kt del Nord
Temperatura 24°C
Humitat 41%
Pressió 1021 hPa
Visibilitat: 16.1 km
Escasses núvols a una alçada de 7000 ft

METAR: KBBG 292251Z 35008KT 10SM FEW070 24/10 A3014

Hora: 18:53 (23:53 UTC)

Pronòstic

L'informe es va fer fa 33 minuts, a les 23:20 UTC
Pronòstic vàlid del 30 a les 00 UTC al 30 a les 24 UTC
Vent 6 kt del Nord
Visibilitat: 10 km
Cel clar
A partir de les 30 a les 0200 UTC
Vent 4 kt amb direcció variable
Visibilitat: 10 km
Cel clar

TAF: KBBG 292320Z 3000/3024 35006KT P6SM SKC FM300200 VRB04KT P6SM SKC

Observacions i pronòstics meteorològics de més de 4000 aeroports (METAR i TAF).

Les estacions disponibles són els punts grocs i vermells al mapa.

Posi el ratolí al punt desitjat per veure el nom de l'estació.

Feu clic per veure les observacions i els pronòstics meteorològics.

Per canviar el mapa: feu clic els botons verds amb una creu de color negre per apropar; al botó verd amb un guió per allunyar la imatge; o en les fletxes verdes per a mapes adjacents.


METAR-TAF: